Time;durP1;ratioP1;P1;durP2;ratioP2;P2;SDS_P1;SDS_P2;PMS_P1;PMS_P2;Temp;Humidity;BMP_temperature;BMP_pressure;BME280_temperature;BME280_humidity;BME280_pressure;Samples;Min_cycle;Max_cycle;Signal;HPM_P1;HPM_P2
2022/12/29 00:01:52;;;;;;;6.55;4.43;;;10.00;99.90;;;;;;5071862;28;20086;-61
2022/12/29 00:04:17;;;;;;;7.15;4.72;;;10.00;99.90;;;;;;5053177;28;20048;-61
2022/12/29 00:06:43;;;;;;;8.07;4.60;;;10.10;99.90;;;;;;5072005;28;20047;-60
2022/12/29 00:09:12;;;;;;;7.50;4.32;;;10.10;99.90;;;;;;5071991;28;20115;-61
2022/12/29 00:11:38;;;;;;;6.13;4.00;;;10.10;99.90;;;;;;5053385;28;20044;-61
2022/12/29 00:16:47;;;;;;;6.63;4.50;;;10.10;99.90;;;;;;5054093;28;20132;-61
2022/12/29 00:36:13;;;;;;;7.63;4.38;;;10.30;99.90;;;;;;5053652;28;20044;-60
2022/12/29 00:44:12;;;;;;;7.90;4.70;;;10.20;99.90;;;;;;5053615;28;20507;-61
2022/12/29 00:46:40;;;;;;;8.13;5.18;;;10.20;99.90;;;;;;5071198;28;20115;-61
2022/12/29 00:51:54;;;;;;;7.47;4.68;;;10.20;99.90;;;;;;5071532;28;20052;-60
2022/12/29 00:54:20;;;;;;;6.80;4.70;;;10.20;99.90;;;;;;5052729;28;20040;-61
2022/12/29 00:56:47;;;;;;;6.82;4.45;;;10.30;99.90;;;;;;5053528;28;20094;-61
2022/12/29 00:59:13;;;;;;;6.32;4.28;;;10.30;99.90;;;;;;5053519;28;20045;-61
2022/12/29 01:01:41;;;;;;;5.95;4.50;;;10.30;99.90;;;;;;5071401;28;20079;-61
2022/12/29 01:04:07;;;;;;;8.02;4.57;;;10.30;99.90;;;;;;5057268;28;20033;-61
2022/12/29 01:06:34;;;;;;;7.35;4.30;;;10.20;99.90;;;;;;5057449;28;20047;-61
2022/12/29 01:11:45;;;;;;;8.80;4.40;;;10.30;99.90;;;;;;5057038;28;20131;-61
2022/12/29 01:14:10;;;;;;;5.75;3.83;;;10.30;99.90;;;;;;5039815;28;20475;-61
2022/12/29 01:16:36;;;;;;;6.95;4.50;;;10.30;99.90;;;;;;5075274;28;20029;-61
2022/12/29 01:19:03;;;;;;;7.47;4.43;;;10.30;99.90;;;;;;5073677;28;20048;-61
2022/12/29 01:21:28;;;;;;;6.75;4.50;;;10.30;99.90;;;;;;5056678;28;20095;-61
2022/12/29 01:23:54;;;;;;;6.72;3.95;;;10.30;99.90;;;;;;5075045;28;20033;-61
2022/12/29 01:26:19;;;;;;;6.47;4.25;;;10.30;99.90;;;;;;5073452;28;20048;-61
2022/12/29 01:28:45;;;;;;;6.03;3.90;;;10.30;99.90;;;;;;5055992;28;20052;-61
2022/12/29 01:31:13;;;;;;;8.27;4.20;;;10.30;99.90;;;;;;5074691;28;20489;-61
2022/12/29 01:33:39;;;;;;;7.88;4.18;;;10.30;99.90;;;;;;5057348;28;20040;-61
2022/12/29 01:36:07;;;;;;;9.23;4.40;;;10.30;99.90;;;;;;5073616;28;20037;-61
2022/12/29 01:38:34;;;;;;;6.53;4.07;;;10.30;99.90;;;;;;5074755;28;20079;-61
2022/12/29 01:41:00;;;;;;;6.60;4.35;;;10.30;99.90;;;;;;5056392;28;20501;-61
2022/12/29 01:43:52;;;;;;;7.57;4.28;;;10.20;99.90;;;;;;5073774;28;20081;-61
2022/12/29 01:46:23;;;;;;;5.85;4.03;;;10.20;99.90;;;;;;5056572;28;20116;-61
2022/12/29 01:48:57;;;;;;;6.82;4.13;;;10.20;99.90;;;;;;5056460;28;20080;-61
2022/12/29 01:51:25;;;;;;;9.38;4.43;;;10.20;99.90;;;;;;5055935;28;20048;-61
2022/12/29 01:53:53;;;;;;;6.25;4.03;;;10.20;99.90;;;;;;5056413;28;20072;-61
2022/12/29 01:56:21;;;;;;;7.82;5.03;;;10.10;99.90;;;;;;5073354;28;20044;-61
2022/12/29 01:58:52;;;;;;;8.38;5.57;;;10.10;99.90;;;;;;5074184;28;20439;-61
2022/12/29 02:01:20;;;;;;;7.13;4.85;;;10.00;99.90;;;;;;5056271;28;20048;-61
2022/12/29 02:03:46;;;;;;;5.90;4.05;;;10.10;99.90;;;;;;5055506;28;20111;-61
2022/12/29 02:06:23;;;;;;;7.50;4.80;;;10.00;99.90;;;;;;5056189;28;20526;-61
2022/12/29 02:08:52;;;;;;;9.27;4.93;;;10.00;99.90;;;;;;5073880;28;20387;-61
2022/12/29 02:11:19;;;;;;;8.60;5.22;;;10.00;99.90;;;;;;5055163;28;20048;-61
2022/12/29 02:13:45;;;;;;;9.65;4.90;;;10.00;99.90;;;;;;5055745;28;20044;-61
2022/12/29 02:16:28;;;;;;;10.27;5.40;;;10.00;99.90;;;;;;5039713;28;20040;-61
2022/12/29 02:19:06;;;;;;;8.05;4.70;;;10.00;99.90;;;;;;5038577;28;20044;-61
2022/12/29 02:21:57;;;;;;;7.53;4.13;;;9.90;99.90;;;;;;5073880;28;20036;-61
2022/12/29 02:24:35;;;;;;;5.85;3.35;;;10.00;99.90;;;;;;5018298;28;20110;-60
2022/12/29 02:27:31;;;;;;;3.90;1.23;;;9.90;99.90;;;;;;5072637;28;20052;-59
2022/12/29 02:30:26;;;;;;;1.65;0.35;;;9.80;99.90;;;;;;5055874;28;20052;-59
2022/12/29 02:33:22;;;;;;;1.73;0.40;;;9.60;99.90;;;;;;5055152;28;20040;-59
2022/12/29 02:36:07;;;;;;;2.15;0.55;;;9.50;99.90;;;;;;5073470;28;20119;-59
2022/12/29 02:39:00;;;;;;;2.90;0.80;;;9.50;99.90;;;;;;5054709;28;20060;-59
2022/12/29 02:41:35;;;;;;;0.52;0.25;;;9.40;99.90;;;;;;5073501;28;20040;-59
2022/12/29 02:44:13;;;;;;;4.03;0.60;;;9.40;99.90;;;;;;5072148;28;20045;-60
2022/12/29 02:47:00;;;;;;;2.95;0.68;;;9.30;99.90;;;;;;5055130;28;20080;-60
2022/12/29 02:49:40;;;;;;;2.03;0.70;;;9.40;99.90;;;;;;5055434;28;20051;-60
2022/12/29 02:52:16;;;;;;;2.38;0.82;;;9.40;99.90;;;;;;5073015;28;20081;-60
2022/12/29 02:54:42;;;;;;;1.90;0.85;;;9.40;99.90;;;;;;5054367;28;20050;-61
2022/12/29 02:57:20;;;;;;;1.60;0.77;;;9.40;99.90;;;;;;5055628;28;20419;-61
2022/12/29 03:00:10;;;;;;;1.60;0.70;;;9.40;99.90;;;;;;5072310;28;20375;-61
2022/12/29 03:02:45;;;;;;;3.08;0.90;;;9.50;99.90;;;;;;5061438;28;20080;-61
2022/12/29 03:05:35;;;;;;;3.55;1.35;;;9.40;99.90;;;;;;5071869;28;20139;-61
2022/12/29 03:08:34;;;;;;;4.35;2.13;;;9.40;99.90;;;;;;5072128;28;20052;-61
2022/12/29 03:17:25;;;;;;;11.52;4.15;;;9.40;99.90;;;;;;5054946;28;20110;-61
2022/12/29 03:19:56;;;;;;;6.93;2.90;;;9.30;99.90;;;;;;5072616;28;20045;-61
2022/12/29 03:22:27;;;;;;;8.13;4.10;;;9.40;99.90;;;;;;5054107;28;20431;-61
2022/12/29 03:24:57;;;;;;;5.35;3.47;;;9.30;99.90;;;;;;5054477;28;20041;-61
2022/12/29 03:27:31;;;;;;;6.03;3.00;;;9.40;99.90;;;;;;5072301;28;20047;-61
2022/12/29 03:30:01;;;;;;;7.65;3.00;;;9.30;99.90;;;;;;5071769;28;20051;-61
2022/12/29 03:32:33;;;;;;;7.82;2.58;;;9.30;99.90;;;;;;5054588;28;20047;-61
2022/12/29 03:35:00;;;;;;;10.35;3.97;;;9.30;99.90;;;;;;5053811;28;20040;-61
2022/12/29 03:37:31;;;;;;;6.47;2.55;;;9.30;99.90;;;;;;5072281;28;20047;-61
2022/12/29 03:39:57;;;;;;;6.82;2.38;;;9.20;99.90;;;;;;5054687;28;20076;-61
2022/12/29 03:42:27;;;;;;;7.05;2.33;;;9.20;99.90;;;;;;5070194;28;20079;-61
2022/12/29 03:44:56;;;;;;;5.63;2.20;;;9.20;99.90;;;;;;5072258;28;20040;-61
2022/12/29 03:47:23;;;;;;;6.18;2.22;;;9.20;99.90;;;;;;5054328;28;20047;-61
2022/12/29 03:49:49;;;;;;;7.55;1.63;;;9.10;99.90;;;;;;5071353;28;20362;-61
2022/12/29 03:52:15;;;;;;;3.97;1.63;;;9.10;99.90;;;;;;5037527;28;20037;-61
2022/12/29 03:54:41;;;;;;;8.68;2.28;;;9.10;99.90;;;;;;5054577;28;20055;-61
2022/12/29 03:57:06;;;;;;;9.38;2.70;;;9.00;99.90;;;;;;5071256;28;20393;-61
2022/12/29 03:59:32;;;;;;;6.70;1.92;;;9.10;99.90;;;;;;5071058;28;20393;-61
2022/12/29 04:01:58;;;;;;;6.53;2.05;;;9.00;99.90;;;;;;5072512;28;20047;-61
2022/12/29 04:04:23;;;;;;;8.13;2.38;;;8.90;99.90;;;;;;5053246;28;20032;-61
2022/12/29 04:06:49;;;;;;;7.25;2.42;;;8.90;99.90;;;;;;5071982;28;20041;-62
2022/12/29 04:09:15;;;;;;;6.22;1.90;;;8.90;99.90;;;;;;5071968;28;20055;-62
2022/12/29 04:11:40;;;;;;;9.52;2.42;;;8.90;99.90;;;;;;5053502;28;20044;-61
2022/12/29 04:14:06;;;;;;;7.05;2.22;;;8.90;99.90;;;;;;5071695;28;20044;-61
2022/12/29 04:16:35;;;;;;;5.32;1.83;;;8.80;99.90;;;;;;5054352;28;20051;-62
2022/12/29 04:19:01;;;;;;;7.00;2.10;;;8.70;99.90;;;;;;5071043;28;20048;-61
2022/12/29 04:21:27;;;;;;;8.05;2.17;;;8.80;99.90;;;;;;5072017;28;20398;-62
2022/12/29 04:23:52;;;;;;;7.32;2.00;;;8.70;99.90;;;;;;5072017;28;20046;-62
2022/12/29 04:26:18;;;;;;;7.57;2.20;;;8.70;99.90;;;;;;5070868;28;20051;-62
2022/12/29 04:28:44;;;;;;;5.53;1.73;;;8.70;99.90;;;;;;5071625;28;20086;-61
2022/12/29 04:31:10;;;;;;;6.55;2.03;;;8.70;99.90;;;;;;5071095;28;20044;-61
2022/12/29 04:33:35;;;;;;;9.23;2.35;;;8.60;99.90;;;;;;5053966;28;20432;-61
2022/12/29 04:36:01;;;;;;;8.43;1.83;;;8.60;99.90;;;;;;5070535;28;20123;-61
2022/12/29 04:38:27;;;;;;;8.27;2.30;;;8.60;99.90;;;;;;5073654;28;20043;-61
2022/12/29 04:40:53;;;;;;;5.82;1.88;;;8.60;99.90;;;;;;5074702;28;20477;-61
2022/12/29 04:43:19;;;;;;;7.43;2.08;;;8.60;99.90;;;;;;5075892;28;20157;-62
2022/12/29 04:45:46;;;;;;;9.88;2.42;;;8.60;99.90;;;;;;5074964;28;20059;-61
2022/12/29 04:48:12;;;;;;;7.90;2.00;;;8.60;99.90;;;;;;5075588;28;20049;-61
2022/12/29 04:50:38;;;;;;;9.00;2.05;;;8.60;99.90;;;;;;5058180;28;20119;-61
2022/12/29 04:53:04;;;;;;;10.38;2.50;;;8.60;99.90;;;;;;5056946;28;20428;-61
2022/12/29 04:55:30;;;;;;;12.82;2.85;;;8.60;99.90;;;;;;5074479;28;20048;-61
2022/12/29 04:57:56;;;;;;;14.65;2.92;;;8.60;99.90;;;;;;5075316;28;20047;-61
2022/12/29 05:00:22;;;;;;;11.77;3.05;;;8.60;99.90;;;;;;5074639;28;20040;-61
2022/12/29 05:02:48;;;;;;;10.05;3.42;;;8.60;99.90;;;;;;5075257;28;20465;-61
2022/12/29 05:05:14;;;;;;;12.93;3.72;;;8.70;99.90;;;;;;5075403;28;20119;-61
2022/12/29 05:07:40;;;;;;;23.95;3.08;;;8.60;99.90;;;;;;5057013;28;20041;-61
2022/12/29 05:10:06;;;;;;;15.75;3.38;;;8.70;99.90;;;;;;5057126;28;20158;-61
2022/12/29 05:12:34;;;;;;;17.25;3.40;;;8.70;99.90;;;;;;5057331;28;20045;-61
2022/12/29 05:15:00;;;;;;;15.07;3.10;;;8.70;99.90;;;;;;5074512;28;20068;-61
2022/12/29 05:17:26;;;;;;;14.07;3.47;;;8.70;99.90;;;;;;5056940;28;20076;-61
2022/12/29 05:19:51;;;;;;;11.82;2.67;;;8.80;99.90;;;;;;5075131;28;20028;-61
2022/12/29 05:22:17;;;;;;;11.05;2.90;;;8.80;99.90;;;;;;5056381;28;20131;-61
2022/12/29 05:24:43;;;;;;;18.23;3.92;;;8.80;99.90;;;;;;5073638;28;20432;-61
2022/12/29 05:27:08;;;;;;;21.10;3.65;;;8.80;99.90;;;;;;5073539;28;20087;-61
2022/12/29 05:29:34;;;;;;;17.00;2.80;;;8.70;99.90;;;;;;5073202;28;20075;-61
2022/12/29 05:32:00;;;;;;;11.95;2.70;;;8.70;99.90;;;;;;5074600;28;20401;-61
2022/12/29 05:34:25;;;;;;;11.02;3.38;;;8.70;99.90;;;;;;5072595;28;20048;-61
2022/12/29 05:36:51;;;;;;;14.43;4.32;;;8.60;99.90;;;;;;5073419;28;20052;-61
2022/12/29 05:39:17;;;;;;;16.25;3.10;;;8.60;99.90;;;;;;5074370;28;20036;-61
2022/12/29 05:41:42;;;;;;;13.93;3.67;;;8.60;99.90;;;;;;5074077;28;20060;-61
2022/12/29 05:44:10;;;;;;;12.88;2.90;;;8.60;99.90;;;;;;5056781;28;20477;-61
2022/12/29 05:46:35;;;;;;;15.35;3.03;;;8.60;99.90;;;;;;5056714;28;20043;-62
2022/12/29 05:49:01;;;;;;;15.55;3.38;;;8.60;99.90;;;;;;5072909;28;20052;-61
2022/12/29 05:51:27;;;;;;;12.45;2.55;;;8.60;99.90;;;;;;5073200;28;20033;-62
2022/12/29 05:53:52;;;;;;;15.57;3.45;;;8.60;99.90;;;;;;5074278;28;20094;-62
2022/12/29 05:56:18;;;;;;;11.48;2.80;;;8.60;99.90;;;;;;5072478;28;20044;-61
2022/12/29 05:58:44;;;;;;;10.55;2.28;;;8.60;99.90;;;;;;5074120;28;20037;-61
2022/12/29 06:01:09;;;;;;;17.70;3.63;;;8.70;99.90;;;;;;5074060;28;20111;-62
2022/12/29 06:03:35;;;;;;;15.30;2.60;;;8.70;99.90;;;;;;5073765;28;20056;-62
2022/12/29 06:06:01;;;;;;;12.05;2.95;;;8.70;99.90;;;;;;5074086;28;20075;-62
2022/12/29 06:08:26;;;;;;;15.15;3.80;;;8.70;99.90;;;;;;5072906;28;20052;-62
2022/12/29 06:10:52;;;;;;;10.75;2.80;;;8.80;99.90;;;;;;5072085;28;20098;-62
2022/12/29 06:13:18;;;;;;;9.98;3.35;;;8.80;99.90;;;;;;5074187;28;20093;-61
2022/12/29 06:15:43;;;;;;;12.82;3.33;;;8.80;99.90;;;;;;5039434;28;20119;-61
2022/12/29 06:18:09;;;;;;;22.48;3.83;;;8.80;99.90;;;;;;5071869;28;20040;-61
2022/12/29 06:20:35;;;;;;;9.25;2.78;;;8.80;99.90;;;;;;5074283;28;20056;-61
2022/12/29 06:23:00;;;;;;;13.70;3.55;;;8.80;99.90;;;;;;5073763;28;20393;-61
2022/12/29 06:25:26;;;;;;;12.88;4.13;;;8.70;99.90;;;;;;5055217;28;20039;-62
2022/12/29 06:27:52;;;;;;;11.27;2.90;;;8.70;99.90;;;;;;5055713;28;20142;-61
2022/12/29 06:30:17;;;;;;;9.65;3.25;;;8.70;99.90;;;;;;5039015;28;20040;-61
2022/12/29 06:32:44;;;;;;;19.30;3.78;;;8.60;99.90;;;;;;5054871;28;20445;-60
2022/12/29 06:35:10;;;;;;;12.63;2.88;;;8.60;99.90;;;;;;5073474;28;20470;-61
2022/12/29 06:37:35;;;;;;;16.23;4.07;;;8.60;99.90;;;;;;5072963;28;20048;-61
2022/12/29 06:40:01;;;;;;;21.60;3.90;;;8.50;99.90;;;;;;5055921;28;20506;-61
2022/12/29 06:42:27;;;;;;;13.93;3.05;;;8.50;99.90;;;;;;5038998;28;20128;-61
2022/12/29 06:44:53;;;;;;;14.05;4.15;;;8.50;99.90;;;;;;5071342;28;20131;-61
2022/12/29 06:47:19;;;;;;;14.10;3.55;;;8.50;99.90;;;;;;5072416;28;20393;-61
2022/12/29 06:49:44;;;;;;;21.65;4.78;;;8.50;99.90;;;;;;5072116;28;20044;-61
2022/12/29 06:52:10;;;;;;;19.42;5.28;;;8.50;99.90;;;;;;5038412;28;20411;-61
2022/12/29 06:54:36;;;;;;;20.15;4.05;;;8.50;99.90;;;;;;5072248;28;20497;-61
2022/12/29 06:57:01;;;;;;;17.90;4.07;;;8.50;99.90;;;;;;5073252;28;20045;-61
2022/12/29 06:59:27;;;;;;;14.38;3.85;;;8.50;99.90;;;;;;5070435;28;20041;-61
2022/12/29 07:01:53;;;;;;;13.93;4.15;;;8.40;99.90;;;;;;5071265;28;20032;-61
2022/12/29 07:04:18;;;;;;;11.98;3.38;;;8.40;99.90;;;;;;5073045;28;20047;-61
2022/12/29 07:06:44;;;;;;;18.17;4.00;;;8.50;99.90;;;;;;5072111;28;20075;-61
2022/12/29 07:09:10;;;;;;;17.38;4.35;;;8.50;99.90;;;;;;5071679;28;20036;-61
2022/12/29 07:11:36;;;;;;;20.27;4.32;;;8.60;99.90;;;;;;5055296;28;20049;-61
2022/12/29 07:14:02;;;;;;;14.85;3.88;;;8.50;99.90;;;;;;5072067;28;20044;-61
2022/12/29 07:16:29;;;;;;;19.17;4.57;;;8.50;99.90;;;;;;5071606;28;20070;-61
2022/12/29 07:18:56;;;;;;;14.48;4.07;;;8.50;99.90;;;;;;5054749;28;20045;-61
2022/12/29 07:21:22;;;;;;;20.35;5.55;;;8.50;99.90;;;;;;5071828;28;20042;-61
2022/12/29 07:23:48;;;;;;;14.85;4.03;;;8.60;99.90;;;;;;5072906;28;20080;-61
2022/12/29 07:26:17;;;;;;;15.88;3.90;;;8.60;99.90;;;;;;5072881;28;20032;-61
2022/12/29 07:28:43;;;;;;;12.00;3.78;;;8.60;99.90;;;;;;5037085;28;20123;-61
2022/12/29 07:31:15;;;;;;;19.23;4.18;;;8.70;99.90;;;;;;5071079;28;20094;-61
2022/12/29 07:33:43;;;;;;;14.35;4.13;;;8.80;99.90;;;;;;5038528;28;20070;-61
2022/12/29 07:36:09;;;;;;;13.63;4.80;;;8.80;99.90;;;;;;5053699;28;20482;-62
2022/12/29 07:38:35;;;;;;;18.05;5.20;;;8.90;99.90;;;;;;5054525;28;20045;-62
2022/12/29 07:41:00;;;;;;;18.65;5.18;;;8.90;99.90;;;;;;5070375;28;20371;-61
2022/12/29 07:43:26;;;;;;;19.80;6.20;;;8.90;99.90;;;;;;5070854;28;20447;-62
2022/12/29 07:45:51;;;;;;;16.90;5.85;;;9.00;99.90;;;;;;5038037;28;20363;-61
2022/12/29 07:48:17;;;;;;;18.50;4.05;;;9.00;99.90;;;;;;5070275;28;20552;-61
2022/12/29 07:50:46;;;;;;;23.52;6.47;;;9.00;99.90;;;;;;5071938;28;20044;-61
2022/12/29 07:53:11;;;;;;;17.55;5.57;;;9.00;99.90;;;;;;5072311;28;20183;-62
2022/12/29 07:55:37;;;;;;;17.05;3.70;;;9.00;99.90;;;;;;5070432;28;20124;-61
2022/12/29 07:58:03;;;;;;;13.25;3.90;;;9.00;99.90;;;;;;5070801;28;20060;-61
2022/12/29 08:00:28;;;;;;;13.38;3.00;;;9.00;99.90;;;;;;5072246;28;20123;-61
2022/12/29 08:02:54;;;;;;;17.67;3.05;;;9.00;99.90;;;;;;5071454;28;20033;-61
2022/12/29 08:05:20;;;;;;;19.27;3.67;;;9.00;99.90;;;;;;5072212;28;20089;-61
2022/12/29 08:07:46;;;;;;;11.27;3.22;;;8.90;99.90;;;;;;5070873;28;20124;-61
2022/12/29 08:10:13;;;;;;;16.45;3.90;;;8.90;99.90;;;;;;5069978;28;20040;-62
2022/12/29 08:12:39;;;;;;;13.10;3.72;;;8.90;99.90;;;;;;5054237;28;20041;-61
2022/12/29 08:15:06;;;;;;;12.23;4.45;;;8.90;99.90;;;;;;5053908;28;20055;-61
2022/12/29 08:17:32;;;;;;;15.32;4.20;;;8.90;99.90;;;;;;5070788;28;20037;-61
2022/12/29 08:19:58;;;;;;;19.60;5.18;;;8.90;99.90;;;;;;5062178;28;20044;-61
2022/12/29 08:22:24;;;;;;;19.30;4.43;;;8.90;99.90;;;;;;5070198;28;20072;-61
2022/12/29 08:24:50;;;;;;;18.75;5.43;;;8.90;99.90;;;;;;5071144;28;20037;-61
2022/12/29 08:27:16;;;;;;;16.83;4.22;;;8.90;99.90;;;;;;5047937;28;20041;-61
2022/12/29 08:29:42;;;;;;;15.07;4.00;;;8.80;99.90;;;;;;5014088;28;20049;-61
2022/12/29 08:32:08;;;;;;;17.35;3.72;;;8.80;99.90;;;;;;5029667;28;20068;-61
2022/12/29 08:34:33;;;;;;;18.65;5.15;;;8.80;99.90;;;;;;5031166;28;20045;-61
2022/12/29 08:36:59;;;;;;;20.27;5.18;;;8.80;99.90;;;;;;5030715;28;20049;-61
2022/12/29 08:39:25;;;;;;;22.80;4.95;;;8.80;99.90;;;;;;5030804;28;20121;-61
2022/12/29 08:41:50;;;;;;;24.58;7.50;;;8.80;99.90;;;;;;5030660;28;20394;-61
2022/12/29 08:44:16;;;;;;;15.02;4.07;;;8.80;99.90;;;;;;5013237;28;20560;-61
2022/12/29 08:46:42;;;;;;;13.52;4.10;;;8.90;99.90;;;;;;5030048;28;20087;-61
2022/12/29 08:49:07;;;;;;;26.15;5.68;;;8.90;99.90;;;;;;5019651;28;20176;-61
2022/12/29 08:51:33;;;;;;;16.50;4.38;;;8.90;99.90;;;;;;5029040;28;20042;-61
2022/12/29 08:53:59;;;;;;;15.68;5.15;;;8.90;99.90;;;;;;5028092;28;20509;-61
2022/12/29 08:56:26;;;;;;;17.13;4.85;;;8.90;99.90;;;;;;5028131;28;20532;-61
2022/12/29 08:58:52;;;;;;;19.83;3.60;;;9.00;99.90;;;;;;5026869;28;20049;-61
2022/12/29 09:01:19;;;;;;;19.40;4.15;;;9.00;99.90;;;;;;5028053;28;20544;-61
2022/12/29 09:03:45;;;;;;;16.98;4.70;;;9.00;99.90;;;;;;5014634;28;20042;-61
2022/12/29 09:06:12;;;;;;;19.90;4.95;;;9.00;99.90;;;;;;5026152;28;20054;-61
2022/12/29 09:08:37;;;;;;;20.83;4.22;;;9.00;99.90;;;;;;5010462;28;20132;-61
2022/12/29 09:11:23;;;;;;;22.52;4.70;;;9.00;99.90;;;;;;5009893;28;20124;-61
2022/12/29 09:13:49;;;;;;;20.83;4.75;;;8.90;99.90;;;;;;5025844;28;20053;-61
2022/12/29 09:16:16;;;;;;;18.17;4.93;;;8.90;99.90;;;;;;5027616;28;20060;-61
2022/12/29 09:18:42;;;;;;;17.27;5.55;;;8.80;99.90;;;;;;5028264;28;20052;-62
2022/12/29 09:21:10;;;;;;;17.08;3.97;;;8.90;99.90;;;;;;5010046;28;20052;-61
2022/12/29 09:23:37;;;;;;;16.88;4.82;;;8.80;99.90;;;;;;5026524;28;20079;-62
2022/12/29 09:26:04;;;;;;;19.10;5.03;;;8.80;99.90;;;;;;5030723;28;20041;-62
2022/12/29 10:05:28;;;;;;;17.80;3.65;;;8.40;99.90;;;;;;5044759;28;20047;-62
2022/12/29 10:19:34;;;;;;;10.15;3.17;;;8.40;99.90;;;;;;5023180;28;20099;-62
2022/12/29 10:22:37;;;;;;;14.65;4.22;;;8.40;99.90;;;;;;5022694;28;20045;-62
2022/12/29 10:25:13;;;;;;;15.52;4.68;;;8.50;99.90;;;;;;5023797;28;20045;-62
2022/12/29 10:27:39;;;;;;;19.77;4.50;;;8.40;99.90;;;;;;5011672;28;20089;-62
2022/12/29 10:30:05;;;;;;;13.88;4.40;;;8.50;99.90;;;;;;5038962;28;20077;-62
2022/12/29 10:32:42;;;;;;;20.45;4.47;;;8.50;99.90;;;;;;5037199;28;20607;-62
2022/12/29 10:35:20;;;;;;;13.80;4.63;;;8.50;99.90;;;;;;5004792;28;20088;-61
2022/12/29 10:37:52;;;;;;;15.88;4.25;;;8.50;99.90;;;;;;5025990;28;20545;-61
2022/12/29 10:40:40;;;;;;;17.80;6.18;;;8.60;99.90;;;;;;5027261;28;20068;-62
2022/12/29 10:43:44;;;;;;;18.90;5.13;;;8.60;99.90;;;;;;5053146;28;20547;-62
2022/12/29 10:46:14;;;;;;;22.35;5.40;;;8.60;99.90;;;;;;5053444;28;20389;-61
2022/12/29 10:48:40;;;;;;;35.63;8.18;;;8.60;99.90;;;;;;5035035;28;20040;-62
2022/12/29 10:51:08;;;;;;;20.50;5.95;;;8.70;99.90;;;;;;5068873;28;20048;-61
2022/12/29 10:53:47;;;;;;;19.08;5.32;;;8.70;99.90;;;;;;5069823;28;20059;-61
2022/12/29 10:56:36;;;;;;;20.05;5.95;;;8.80;99.90;;;;;;5069592;28;20033;-62
2022/12/29 10:59:12;;;;;;;20.20;5.60;;;8.80;99.90;;;;;;5048251;28;20357;-62
2022/12/29 11:01:55;;;;;;;25.17;5.95;;;8.80;99.90;;;;;;5053562;28;20059;-62
2022/12/29 11:04:45;;;;;;;22.10;6.13;;;8.90;99.90;;;;;;5037799;28;20102;-62
2022/12/29 11:07:15;;;;;;;16.33;4.40;;;9.00;99.90;;;;;;5061158;28;20056;-61
2022/12/29 11:09:43;;;;;;;27.88;6.70;;;9.00;99.90;;;;;;5051771;28;20129;-62
2022/12/29 11:12:28;;;;;;;19.10;4.57;;;9.00;99.90;;;;;;5068000;28;20493;-62
2022/12/29 11:15:05;;;;;;;;;;;9.10;99.90;;;;;;5069247;28;20085;-62
2022/12/29 11:17:46;;;;;;;22.00;5.38;;;9.10;99.90;;;;;;5053843;28;19999;-62
2022/12/29 11:20:38;;;;;;;9.55;3.55;;;9.10;99.90;;;;;;5065255;28;20062;-61
2022/12/29 11:23:21;;;;;;;12.57;4.43;;;9.20;99.90;;;;;;5054033;28;20556;-62
2022/12/29 11:26:21;;;;;;;18.13;5.72;;;9.20;99.90;;;;;;5068015;28;20056;-61
2022/12/29 11:29:08;;;;;;;15.05;4.25;;;9.20;99.90;;;;;;5057553;28;20048;-62
2022/12/29 11:31:45;;;;;;;13.35;3.78;;;9.20;99.90;;;;;;5004929;28;20129;-62
2022/12/29 11:34:32;;;;;;;14.10;4.30;;;9.20;99.90;;;;;;5034208;28;20045;-61
2022/12/29 11:37:03;;;;;;;15.88;4.28;;;9.20;99.90;;;;;;5034654;28;20147;-61
2022/12/29 11:39:34;;;;;;;16.08;4.25;;;9.20;99.90;;;;;;5036524;28;20048;-61
2022/12/29 11:42:02;;;;;;;16.25;4.53;;;9.20;99.90;;;;;;5070410;28;20052;-61
2022/12/29 11:44:36;;;;;;;12.82;3.58;;;9.10;99.90;;;;;;5071377;28;20408;-62
2022/12/29 11:47:01;;;;;;;21.23;4.40;;;9.10;99.90;;;;;;5071545;28;20366;-61
2022/12/29 11:49:27;;;;;;;19.10;4.22;;;9.10;99.90;;;;;;5071291;28;20544;-61
2022/12/29 11:51:56;;;;;;;17.95;3.78;;;9.10;99.90;;;;;;5072525;28;20036;-63
2022/12/29 11:54:22;;;;;;;18.00;3.05;;;9.10;99.90;;;;;;5069272;28;20059;-61
2022/12/29 11:56:48;;;;;;;12.48;3.28;;;9.00;99.90;;;;;;5069975;28;20044;-61
2022/12/29 11:59:34;;;;;;;11.73;3.58;;;9.00;99.90;;;;;;5070949;28;20477;-61
2022/12/29 12:02:18;;;;;;;16.08;3.58;;;9.00;99.90;;;;;;5055200;28;20481;-62
2022/12/29 12:04:44;;;;;;;14.23;3.15;;;9.00;99.90;;;;;;5054130;28;20060;-62
2022/12/29 12:07:37;;;;;;;16.95;3.45;;;9.00;99.90;;;;;;5071950;28;20048;-62
2022/12/29 12:10:06;;;;;;;15.60;3.22;;;9.00;99.90;;;;;;5053109;28;20040;-62
2022/12/29 12:12:40;;;;;;;18.33;3.72;;;9.10;99.90;;;;;;5054192;28;20043;-62
2022/12/29 12:15:15;;;;;;;14.63;3.38;;;9.10;99.90;;;;;;5053744;28;20041;-62
2022/12/29 12:17:47;;;;;;;12.73;3.42;;;9.20;99.90;;;;;;5054211;28;20473;-62
2022/12/29 12:20:19;;;;;;;11.70;3.33;;;9.20;99.90;;;;;;5070745;28;20048;-62
2022/12/29 12:23:08;;;;;;;14.68;3.25;;;9.30;99.90;;;;;;5053644;28;20436;-62
2022/12/29 12:26:03;;;;;;;9.57;2.72;;;9.30;99.90;;;;;;5054613;28;20058;-62
2022/12/29 12:28:35;;;;;;;8.70;2.60;;;9.30;99.90;;;;;;5000418;28;20070;-62
2022/12/29 12:31:04;;;;;;;10.30;3.67;;;9.30;99.90;;;;;;5071026;28;20759;-61
2022/12/29 12:33:37;;;;;;;8.27;2.50;;;9.30;99.90;;;;;;5053899;28;20123;-61
2022/12/29 12:36:21;;;;;;;11.88;2.90;;;9.30;99.90;;;;;;5053771;28;20045;-62
2022/12/29 12:39:01;;;;;;;8.75;2.25;;;9.30;99.90;;;;;;5053820;28;20047;-61
2022/12/29 12:41:32;;;;;;;7.43;2.95;;;9.30;99.90;;;;;;5071549;28;20513;-61
2022/12/29 12:44:12;;;;;;;9.10;2.33;;;9.30;99.90;;;;;;5053118;28;20056;-62
2022/12/29 12:46:59;;;;;;;13.23;2.53;;;9.30;99.90;;;;;;5072014;28;20032;-62
2022/12/29 12:49:31;;;;;;;17.00;2.78;;;9.30;99.90;;;;;;5070243;28;20044;-62
2022/12/29 12:51:59;;;;;;;10.90;3.33;;;9.30;99.90;;;;;;5069842;28;20045;-62
2022/12/29 12:54:52;;;;;;;10.00;2.63;;;9.40;99.90;;;;;;5070293;28;20036;-62
2022/12/29 12:57:28;;;;;;;10.15;2.53;;;9.40;99.90;;;;;;5053645;28;20040;-62
2022/12/29 13:00:00;;;;;;;9.52;2.65;;;9.40;99.90;;;;;;5074741;28;20426;-62
2022/12/29 13:02:41;;;;;;;12.57;3.08;;;9.40;99.90;;;;;;5057354;28;20119;-62
2022/12/29 13:05:12;;;;;;;12.07;2.97;;;9.40;99.90;;;;;;5073420;28;20553;-62
2022/12/29 13:08:14;;;;;;;8.82;2.22;;;9.40;99.90;;;;;;5074182;28;20559;-62
2022/12/29 13:11:02;;;;;;;8.48;2.15;;;9.40;99.90;;;;;;5041173;28;20040;-62
2022/12/29 13:13:27;;;;;;;13.55;2.47;;;9.30;99.90;;;;;;5073137;28;20051;-61
2022/12/29 13:16:26;;;;;;;10.20;3.13;;;9.30;99.90;;;;;;5073740;28;20044;-62
2022/12/29 13:19:26;;;;;;;9.30;2.50;;;9.20;99.90;;;;;;5056350;28;20044;-62
2022/12/29 13:22:04;;;;;;;13.85;2.50;;;9.20;99.90;;;;;;5075186;28;20494;-62
2022/12/29 13:24:57;;;;;;;11.23;2.53;;;9.10;99.90;;;;;;5074019;28;20044;-62
2022/12/29 13:27:45;;;;;;;10.02;2.33;;;9.00;99.90;;;;;;5074133;28;20039;-62
2022/12/29 13:30:20;;;;;;;11.98;2.90;;;9.00;99.90;;;;;;5074660;28;20068;-62
2022/12/29 13:33:12;;;;;;;14.80;2.45;;;9.00;99.90;;;;;;5056116;28;20040;-62
2022/12/29 13:36:05;;;;;;;6.78;2.10;;;9.00;99.90;;;;;;5073671;28;20070;-63
2022/12/29 13:38:41;;;;;;;9.98;2.75;;;8.90;99.90;;;;;;5074776;28;20040;-62
2022/12/29 13:41:11;;;;;;;13.90;2.30;;;8.90;99.90;;;;;;5056562;28;20428;-62
2022/12/29 13:43:42;;;;;;;10.40;2.47;;;8.80;99.90;;;;;;5074936;28;20485;-62
2022/12/29 13:46:20;;;;;;;9.10;2.10;;;8.80;99.90;;;;;;5074631;28;20041;-62
2022/12/29 13:48:55;;;;;;;13.90;3.38;;;8.80;99.90;;;;;;5039186;28;20037;-62
2022/12/29 13:51:23;;;;;;;12.48;2.45;;;8.80;99.90;;;;;;5074659;28;20044;-62
2022/12/29 13:54:10;;;;;;;11.43;2.63;;;8.80;99.90;;;;;;5073752;28;20047;-62
2022/12/29 13:56:40;;;;;;;10.88;2.88;;;8.80;99.90;;;;;;5073366;28;20485;-62
2022/12/29 13:59:15;;;;;;;7.57;2.35;;;8.80;99.90;;;;;;5056238;28;20485;-62
2022/12/29 14:01:45;;;;;;;8.77;2.15;;;8.70;99.90;;;;;;5072862;28;20480;-62
2022/12/29 14:04:25;;;;;;;12.85;3.05;;;8.70;99.90;;;;;;5073232;28;20110;-62
2022/12/29 14:07:16;;;;;;;8.10;2.30;;;8.80;99.90;;;;;;5056179;28;20052;-62
2022/12/29 14:09:52;;;;;;;12.77;2.33;;;8.80;99.90;;;;;;5055017;28;20120;-62
2022/12/29 14:12:38;;;;;;;11.82;2.92;;;8.80;99.90;;;;;;5039544;28;20040;-62
2022/12/29 14:15:10;;;;;;;7.85;2.25;;;8.80;99.90;;;;;;5055172;28;20568;-62
2022/12/29 14:17:37;;;;;;;10.30;2.40;;;8.80;99.90;;;;;;5072995;28;20040;-62
2022/12/29 14:20:07;;;;;;;11.50;2.78;;;8.80;99.90;;;;;;5074073;28;20515;-62
2022/12/29 14:22:33;;;;;;;12.32;2.72;;;8.70;99.90;;;;;;5055434;28;20621;-62
2022/12/29 14:24:58;;;;;;;11.55;2.35;;;8.70;99.90;;;;;;5072901;28;20152;-62
2022/12/29 14:27:51;;;;;;;13.88;2.53;;;8.70;99.90;;;;;;5055975;28;20037;-62
2022/12/29 14:30:47;;;;;;;11.23;2.17;;;8.60;99.90;;;;;;5054907;28;20048;-62
2022/12/29 14:33:14;;;;;;;;;;;8.60;99.90;;;;;;5072590;28;20588;-62
2022/12/29 14:35:49;;;;;;;14.43;2.40;;;8.50;99.90;;;;;;5056240;28;19962;-62
2022/12/29 14:38:23;;;;;;;15.13;2.95;;;8.50;99.90;;;;;;5054936;28;20040;-62